Latest Weather Observations for Launceston Airport

IDT60801

Issued at 1:05 pm EDT Saturday 29 November 2014 (issued every 30 minutes, with the page automatically refreshed every 10 minutes)

About weather observations | Map of weather stations | Latest weather observations for TAS | Other Formats
Station Details ID: 091311 Name: LAUNCESTON AIRPORT Lat: -41.55 Lon: 147.21 Height: 166.9 m
Data from the previous 72 hours. | See also: Recent months at Launceston Airport
Date/Time
EDT
Temp
°C
App
Temp
°C
Dew
Point
Rel
Hum
%
Delta-T
°C
Wind Press
QNH
hPa
Press
MSL
hPa
Rain
since 9 am
mm
Dir
 
Spd
km/h
Gust
km/h
Spd
kts
Gust
kts
29/01:00pm 21.7 18.6 3.4 30 8.8 SW 9 15 5 8 1016.7 1016.6 0.0
29/12:30pm 21.7 19.6 3.9 31 8.7 E 4 13 2 7 1016.8 1016.7 0.0
29/12:00pm 20.8 18.4 5.2 36 7.7 NNE 7 19 4 10 1017.0 1016.9 0.0
29/11:30am 20.0 18.0 4.5 36 7.5 S 4 13 2 7 1017.7 1017.6 0.0
29/11:00am 18.9 16.2 5.4 41 6.6 SSW 9 15 5 8 1018.3 1018.2 0.0
29/10:30am 18.5 16.9 8.2 51 5.3 ESE 6 11 3 6 1018.7 1018.6 0.0
29/10:00am 17.7 16.4 7.7 52 5.1 SSW 4 11 2 6 1018.9 1018.8 0.0
29/09:30am 16.1 14.6 9.3 64 3.5 SSW 7 15 4 8 1019.3 1019.2 0.0
29/09:00am 15.2 14.6 9.1 67 3.1 SSW 2 6 1 3 1019.5 1019.4 0.0
29/08:30am 14.6 14.4 10.4 76 2.2 SSW 2 6 1 3 1019.5 1019.4 0.0
29/08:00am 13.6 13.8 10.4 81 1.7 CALM 0 6 0 3 1019.7 1019.6 0.0
29/07:30am 12.9 13.0 10.3 84 1.4 CALM 0 0 0 0 1019.7 1019.6 0.0
29/07:00am 11.5 10.8 9.9 90 0.8 E 4 6 2 3 1019.5 1019.4 0.0
29/06:30am 9.9 9.7 9.1 95 0.4 CALM 0 0 0 0 1019.5 1019.4 0.0
29/06:00am 8.8 8.4 8.2 96 0.3 CALM 0 0 0 0 1019.5 1019.4 0.0
29/05:30am 7.7 5.8 6.8 94 0.4 SSE 6 9 3 5 1019.4 1019.3 0.0
29/05:09am 7.9 7.2 7.1 95 0.4 CALM 0 0 0 0 1019.4 1019.3 0.0
29/05:00am 8.3 7.8 7.7 96 0.3 CALM 0 0 0 0 1019.4 1019.3 0.0
29/04:58am 8.1 7.5 7.5 96 0.3 CALM 0 0 0 0 1019.4 1019.3 0.0
29/04:35am 8.0 7.4 7.2 95 0.4 CALM 0 0 0 0 1019.4 1019.3 0.0
29/04:30am 8.0 7.4 7.2 95 0.4 CALM 0 0 0 0 1019.4 1019.3 0.0
29/04:00am 7.9 7.1 6.5 91 0.6 CALM 0 0 0 0 1019.5 1019.4 0.0
29/03:30am 9.2 7.7 8.4 95 0.4 NW 6 7 3 4 1019.5 1019.4 0.0
29/03:00am 8.7 6.5 7.9 95 0.4 N 9 9 5 5 1019.6 1019.5 0.0
29/02:30am 9.0 6.8 7.9 93 0.5 NNW 9 13 5 7 1019.7 1019.6 0.0
29/02:00am 9.5 7.5 8.6 94 0.4 N 9 11 5 6 1019.8 1019.7 0.0
29/01:30am 9.2 7.1 8.3 94 0.4 N 9 11 5 6 1019.7 1019.6 0.0
29/01:00am 9.5 7.3 7.9 90 0.8 N 9 11 5 6 1020.0 1019.9 0.0
29/12:30am 10.4 9.9 8.0 85 1.2 CALM 0 0 0 0 1020.1 1020.0 0.0
29/12:00am 11.1 9.0 8.1 82 1.5 NNW 9 11 5 6 1020.2 1020.1 0.0
 
Date/Time
EDT
Temp
°C
App
Temp
°C
Dew
Point
Rel
Hum
%
Delta-T
°C
Wind Press
QNH
hPa
Press
MSL
hPa
Rain
since 9 am
mm
Dir
 
Spd
km/h
Gust
km/h
Spd
kts
Gust
kts
28/11:30pm 12.6 10.5 8.1 74 2.2 WNW 9 9 5 5 1020.1 1020.0 0.0
28/11:00pm 14.1 12.1 8.7 70 2.7 W 9 9 5 5 1020.2 1020.1 0.0
28/10:30pm 14.3 13.3 8.7 69 2.9 NW 4 7 2 4 1020.4 1020.3 0.0
28/10:00pm 13.7 12.1 8.7 72 2.5 NNW 7 11 4 6 1020.5 1020.4 0.0
28/09:30pm 13.7 10.9 8.7 72 2.5 NNW 13 17 7 9 1020.3 1020.2 0.0
28/09:00pm 13.7 10.1 8.5 71 2.6 NNW 17 22 9 12 1019.9 1019.8 0.0
28/08:30pm 14.4 10.5 8.6 68 2.9 NNW 19 22 10 12 1019.8 1019.7 0.0
28/08:00pm 15.7 11.1 8.2 61 3.8 NNW 22 28 12 15 1019.4 1019.3 0.0
28/07:30pm 16.7 11.3 7.9 56 4.5 NNW 26 30 14 16 1019.2 1019.1 0.0
28/07:00pm 18.0 13.4 8.3 53 5.0 NNW 22 26 12 14 1019.0 1018.9 0.0
28/06:30pm 18.8 13.7 7.6 48 5.7 NNW 24 28 13 15 1018.9 1018.8 0.0
28/06:00pm 20.2 16.1 7.9 45 6.4 NNW 19 26 10 14 1018.7 1018.6 0.0
28/05:30pm 20.2 15.8 7.6 44 6.5 NNW 20 30 11 16 1018.9 1018.8 0.0
28/05:00pm 20.7 16.4 7.7 43 6.7 NNW 20 28 11 15 1018.8 1018.7 0.0
28/04:30pm 20.5 16.1 7.2 42 6.8 NNW 20 28 11 15 1019.0 1018.9 0.0
28/04:00pm 20.4 17.1 6.4 40 7.1 N 13 22 7 12 1019.0 1018.9 0.0
28/03:30pm 21.7 17.7 6.8 38 7.7 N 17 24 9 13 1019.3 1019.2 0.0
28/03:00pm 21.0 18.2 5.0 35 7.9 NW 9 19 5 10 1019.5 1019.4 0.0
28/02:30pm 22.2 17.8 6.4 36 8.1 N 19 24 10 13 1019.9 1019.8 0.0
28/02:00pm 20.3 16.8 5.5 38 7.3 NNW 13 24 7 13 1020.2 1020.1 0.0
28/01:30pm 20.6 17.3 6.2 39 7.3 NW 13 24 7 13 1020.7 1020.6 0.0
28/01:00pm 19.2 15.2 4.9 39 7.0 N 15 28 8 15 1021.0 1020.9 0.0
28/12:30pm 19.3 15.7 6.8 44 6.3 N 15 20 8 11 1021.2 1021.1 0.0
28/12:00pm 17.7 14.3 5.9 46 5.8 NNW 13 24 7 13 1021.7 1021.6 0.0
28/11:30am 17.2 13.4 5.8 47 5.6 NNW 15 24 8 13 1021.9 1021.8 0.0
28/11:00am 18.0 13.2 5.6 44 6.1 NW 20 35 11 19 1021.9 1021.8 0.0
28/10:30am 16.6 11.9 6.1 50 5.2 NNW 20 26 11 14 1022.2 1022.1 0.0
28/10:00am 15.7 11.5 5.6 51 4.9 NNW 17 24 9 13 1022.5 1022.4 0.0
28/09:30am 16.1 12.4 8.1 59 4.1 NNW 17 26 9 14 1022.8 1022.7 0.0
28/09:00am 14.1 12.4 8.3 68 2.9 NNW 7 13 4 7 1023.2 1023.2 0.0
28/08:30am 12.2 10.2 7.3 72 2.4 SSE 7 9 4 5 1023.5 1023.5 0.0
28/08:00am 11.3 9.4 6.8 74 2.1 E 6 7 3 4 1023.4 1023.4 0.0
28/07:30am 10.5 9.7 6.6 77 1.8 CALM 0 0 0 0 1023.4 1023.4 0.0
28/07:00am 9.0 8.2 6.3 83 1.2 CALM 0 0 0 0 1023.1 1023.1 0.0
28/06:30am 7.6 5.5 5.6 87 0.9 SE 6 6 3 3 1023.0 1023.0 0.0
28/06:00am 6.9 4.7 5.2 89 0.8 S 6 9 3 5 1023.0 1023.0 0.0
28/05:30am 5.8 3.7 3.8 87 0.9 S 4 9 2 5 1023.0 1023.0 0.0
28/05:00am 5.6 4.2 3.3 85 1.0 CALM 0 0 0 0 1022.8 1022.7 0.0
28/04:30am 6.5 5.2 4.2 85 1.0 CALM 0 0 0 0 1022.9 1022.8 0.0
28/04:00am 6.6 5.4 4.6 87 0.9 CALM 0 0 0 0 1022.8 1022.7 0.0
28/03:30am 5.6 2.9 3.6 87 0.8 N 7 9 4 5 1022.7 1022.6 0.0
28/03:00am 8.4 7.4 5.5 82 1.3 CALM 0 0 0 0 1023.0 1023.0 0.0
28/02:30am 6.5 5.1 3.3 80 1.4 CALM 0 0 0 0 1023.0 1023.0 0.0
28/02:00am 8.8 7.8 5.4 79 1.5 CALM 0 0 0 0 1023.1 1023.1 0.0
28/01:30am 8.4 5.6 5.3 81 1.4 NNW 9 11 5 6 1023.2 1023.2 0.0
28/01:00am 8.8 5.1 4.6 75 1.9 NNW 13 15 7 8 1023.3 1023.3 0.0
28/12:30am 9.8 5.8 5.0 72 2.2 N 15 20 8 11 1023.4 1023.4 0.0
28/12:00am 10.3 5.6 5.1 70 2.4 N 19 24 10 13 1023.4 1023.4 0.0
 
Date/Time
EDT
Temp
°C
App
Temp
°C
Dew
Point
Rel
Hum
%
Delta-T
°C
Wind Press
QNH
hPa
Press
MSL
hPa
Rain
since 9 am
mm
Dir
 
Spd
km/h
Gust
km/h
Spd
kts
Gust
kts
27/11:30pm 10.3 5.5 4.7 68 2.5 NNW 19 20 10 11 1023.6 1023.6 0.0
27/11:00pm 11.3 5.9 4.3 62 3.2 N 22 28 12 15 1023.3 1023.3 0.0
27/10:30pm 12.1 6.9 3.6 56 3.8 N 20 26 11 14 1023.4 1023.4 0.0
27/10:00pm 12.2 7.0 3.7 56 3.8 N 20 26 11 14 1023.3 1023.3 0.0
27/09:30pm 12.9 7.9 4.6 57 3.8 N 20 26 11 14 1022.9 1022.8 0.0
27/09:00pm 13.4 8.7 5.3 58 3.8 N 19 22 10 12 1022.6 1022.5 0.0
27/08:30pm 14.4 10.7 6.3 58 3.9 N 15 20 8 11 1022.4 1022.3 0.0
27/08:00pm 16.5 11.6 5.2 47 5.4 N 20 24 11 13 1022.0 1021.9 0.0
27/07:30pm 18.8 14.4 0.4 29 8.2 SE 13 19 7 10 1021.6 1021.5 0.0
27/07:00pm 20.1 14.0 0.5 27 8.8 SE 22 30 12 16 1021.3 1021.2 0.0
27/06:30pm 21.5 16.2 -0.5 23 9.8 SE 17 22 9 12 1020.9 1020.8 0.0
27/06:00pm 21.9 18.0 -1.4 21 10.2 S 9 22 5 12 1020.7 1020.6 0.0
27/05:30pm 22.2 17.3 -0.5 22 10.2 SSW 15 24 8 13 1020.7 1020.6 0.0
27/05:00pm 22.3 17.3 1.3 25 9.7 SSW 17 24 9 13 1020.8 1020.7 0.0
27/04:30pm 22.4 18.8 3.0 28 9.3 SSW 11 20 6 11 1021.1 1021.0 0.0
27/04:00pm 21.7 18.3 1.9 27 9.3 S 9 19 5 10 1021.3 1021.2 0.0
27/03:30pm 20.8 16.6 1.6 28 8.9 S 13 19 7 10 1021.4 1021.3 0.0
27/03:00pm 20.9 16.5 2.7 30 8.6 SSW 15 26 8 14 1021.6 1021.5 0.0
27/02:30pm 21.1 17.9 2.9 30 8.7 S 9 32 5 17 1021.9 1021.8 0.0
27/02:00pm 19.8 14.3 0.8 28 8.6 W 19 26 10 14 1022.1 1022.0 0.0
27/01:30pm 19.0 14.3 1.1 30 8.1 SSW 15 26 8 14 1022.3 1022.2 0.0
27/01:00pm 19.2 15.0 1.7 31 8.0 SSE 13 24 7 13 1022.3 1022.2 0.0
27/12:30pm 17.5 14.2 -0.2 30 7.7 SSW 7 20 4 11 1022.6 1022.5 0.0
27/12:00pm 17.6 13.2 0.3 31 7.6 S 13 20 7 11 1022.9 1022.8 0.0
27/11:30am 17.2 13.1 -0.1 31 7.5 SSE 11 20 6 11 1023.2 1023.2 0.0
27/11:00am 15.6 11.8 -0.6 33 6.8 NE 9 13 5 7 1023.4 1023.4 0.0
27/10:30am 14.9 11.0 -1.6 32 6.8 W 9 17 5 9 1023.5 1023.5 0.0
27/10:00am 14.3 10.5 1.9 43 5.4 S 11 15 6 8 1023.6 1023.6 0.0
27/09:30am 13.2 9.6 0.6 42 5.3 SSE 9 15 5 8 1023.9 1023.9 0.0
27/09:00am 12.8 8.7 2.4 49 4.6 SE 13 17 7 9 1024.1 1024.1 0.0
27/08:30am 11.8 7.9 1.4 49 4.4 SE 11 15 6 8 1023.9 1023.9 0.0
27/08:00am 11.0 8.6 2.1 54 3.8 ESE 4 9 2 5 1023.6 1023.6 0.0
27/07:30am 9.1 7.5 2.2 62 2.9 CALM 0 0 0 0 1023.4 1023.4 0.0
27/07:00am 8.6 7.0 2.2 64 2.7 CALM 0 0 0 0 1023.1 1023.1 0.0
27/06:30am 7.2 5.4 1.1 65 2.5 CALM 0 0 0 0 1022.9 1022.8 0.0
27/06:00am 6.5 4.6 0.8 67 2.3 CALM 0 0 0 0 1022.7 1022.6 0.0
27/05:30am 5.7 3.8 0.5 69 2.0 CALM 0 6 0 3 1022.6 1022.5 0.0
27/05:00am 6.3 3.6 0.6 67 2.2 SSE 4 7 2 4 1022.3 1022.2 0.0
27/04:30am 5.9 3.6 0.3 67 2.2 S 2 7 1 4 1022.2 1022.1 0.0
27/04:00am 6.6 3.4 0.9 67 2.3 S 7 9 4 5 1021.8 1021.7 0.0
27/03:30am 6.6 3.0 0.9 67 2.3 S 9 11 5 6 1021.7 1021.6 0.0
27/03:00am 6.4 2.5 0.9 68 2.2 S 11 11 6 6 1021.7 1021.6 0.0
27/02:30am 7.2 4.1 1.1 65 2.5 SSE 7 9 4 5 1021.7 1021.6 0.0
27/02:00am 6.5 3.0 1.0 68 2.2 S 9 11 5 6 1021.5 1021.4 0.0
27/01:30am 6.6 1.9 1.1 68 2.2 SSE 15 17 8 9 1021.5 1021.4 0.0
27/01:00am 8.2 3.5 1.1 61 2.9 SSE 15 17 8 9 1021.5 1021.4 0.0
27/12:30am 8.5 3.5 1.4 61 2.9 SE 17 20 9 11 1021.6 1021.5 0.0
27/12:00am 8.6 3.6 1.5 61 2.9 SE 17 22 9 12 1021.6 1021.5 0.0
 
Date/Time
EDT
Temp
°C
App
Temp
°C
Dew
Point
Rel
Hum
%
Delta-T
°C
Wind Press
QNH
hPa
Press
MSL
hPa
Rain
since 9 am
mm
Dir
 
Spd
km/h
Gust
km/h
Spd
kts
Gust
kts
26/11:30pm 8.3 4.1 1.7 63 2.7 SSE 13 20 7 11 1021.4 1021.3 0.0
26/11:00pm 8.1 4.3 1.9 65 2.6 SE 11 15 6 8 1021.2 1021.1 0.0
26/10:30pm 8.0 4.2 1.8 65 2.6 SE 11 13 6 7 1021.0 1020.9 0.0
26/10:00pm 9.3 5.6 2.2 61 3.0 SSE 11 13 6 7 1020.8 1020.7 0.0
26/09:30pm 11.2 7.1 2.0 53 4.0 S 13 17 7 9 1020.3 1020.2 0.0
26/09:00pm 11.1 7.7 1.6 52 4.0 S 9 15 5 8 1019.6 1019.5 0.0
26/08:30pm 13.0 7.5 1.7 46 4.9 SSW 20 26 11 14 1019.2 1019.1 0.0
26/08:00pm 14.4 8.8 1.3 41 5.7 S 20 32 11 17 1018.8 1018.7 0.0
26/07:30pm 15.4 9.5 1.5 39 6.1 S 22 32 12 17 1018.3 1018.2 0.0
26/07:00pm 16.4 9.9 2.8 40 6.2 SSW 26 35 14 19 1017.7 1017.6 0.0
26/06:30pm 17.4 10.7 1.4 34 7.2 SW 26 33 14 18 1017.1 1017.0 0.0
26/06:00pm 17.9 12.2 0.6 31 7.7 SW 20 28 11 15 1016.6 1016.5 0.0
26/05:30pm 18.7 13.0 0.8 30 8.0 SSW 20 28 11 15 1016.3 1016.2 0.0
26/05:00pm 19.8 14.9 2.2 31 8.2 S 17 28 9 15 1016.1 1016.0 0.0
26/04:30pm 19.4 14.1 1.9 31 8.1 SSW 19 30 10 16 1015.9 1015.8 0.0
26/04:00pm 19.4 13.3 0.4 28 8.5 SW 22 33 12 18 1015.7 1015.6 0.0
26/03:30pm 19.1 12.8 -0.8 26 8.7 WSW 22 35 12 19 1015.5 1015.4 0.0
26/03:00pm 19.6 13.1 0.6 28 8.5 SSW 24 37 13 20 1015.4 1015.3 0.0
26/02:30pm 20.4 14.2 2.3 30 8.5 S 24 35 13 19 1015.2 1015.1 0.0
26/02:00pm 19.1 13.7 1.1 30 8.1 SSW 19 28 10 15 1015.3 1015.2 0.0
26/01:30pm 18.9 13.3 1.4 31 7.9 SSW 20 32 11 17 1015.3 1015.2 0.0

Other Formats:

Comma delimited format used in spreadsheet applications
http://www.bom.gov.au/fwo/IDT60801/IDT60801.95966.axf

JavaScript Object Notation format (JSON) in row-major order
http://www.bom.gov.au/fwo/IDT60801/IDT60801.95966.json